createdAt,value
2018-12-20T00:00:46.847Z,76.43
2018-12-20T00:03:14.600Z,69.83
2018-12-20T00:05:42.271Z,69.50
2018-12-20T00:08:09.784Z,69.13
2018-12-20T00:10:37.320Z,69.67
2018-12-20T00:13:04.906Z,70.73
2018-12-20T00:15:32.484Z,69.30
2018-12-20T00:18:00.108Z,65.40
2018-12-20T00:20:27.840Z,65.60
2018-12-20T00:22:55.420Z,84.60
2018-12-20T00:25:23.030Z,82.50
2018-12-20T00:27:50.627Z,78.33
2018-12-20T00:30:18.221Z,84.53
2018-12-20T00:32:45.819Z,85.23
2018-12-20T00:35:13.328Z,84.57
2018-12-20T00:37:40.925Z,85.97
2018-12-20T00:40:08.457Z,83.33
2018-12-20T00:42:35.941Z,78.97
2018-12-20T00:45:03.644Z,80.07
2018-12-20T00:47:31.143Z,79.83
2018-12-20T00:49:58.783Z,88.87
2018-12-20T00:52:26.528Z,81.93
2018-12-20T00:54:54.071Z,82.33
2018-12-20T00:57:21.665Z,81.87
2018-12-20T00:59:49.143Z,80.67
2018-12-20T01:02:16.668Z,81.73
2018-12-20T01:04:44.260Z,78.63
2018-12-20T01:07:11.761Z,76.43
2018-12-20T01:09:39.258Z,82.30
2018-12-20T01:12:06.813Z,82.03
2018-12-20T01:14:34.484Z,76.57
2018-12-20T01:17:02.105Z,72.27
2018-12-20T01:19:29.594Z,72.53
2018-12-20T01:21:57.098Z,83.17
2018-12-20T01:24:24.582Z,85.37
2018-12-20T01:26:52.066Z,78.60
2018-12-20T01:29:19.604Z,84.00
2018-12-20T01:31:47.291Z,72.27
2018-12-20T01:34:14.880Z,81.37
2018-12-20T01:36:42.492Z,80.93
2018-12-20T01:39:10.099Z,78.93
2018-12-20T01:41:37.735Z,85.00
2018-12-20T01:44:05.436Z,76.73
2018-12-20T01:46:33.027Z,82.20
2018-12-20T01:49:00.566Z,78.43
2018-12-20T01:51:28.089Z,80.67
2018-12-20T01:53:55.586Z,87.93
2018-12-20T01:56:23.279Z,80.37
2018-12-20T01:58:51.021Z,79.77
2018-12-20T02:01:18.524Z,76.43
2018-12-20T02:03:46.152Z,72.50
2018-12-20T02:06:13.709Z,76.97
2018-12-20T02:08:41.211Z,83.00
2018-12-20T02:11:08.682Z,74.03
2018-12-20T02:13:36.281Z,73.33
2018-12-20T02:16:03.761Z,76.17
2018-12-20T02:18:31.239Z,80.37
2018-12-20T02:20:58.764Z,78.90
2018-12-20T02:23:26.249Z,76.50
2018-12-20T02:25:53.896Z,91.27
2018-12-20T02:28:21.832Z,85.60
2018-12-20T02:30:49.448Z,82.33
2018-12-20T02:33:17.403Z,78.60
2018-12-20T02:35:45.019Z,73.70
2018-12-20T02:38:12.555Z,84.87
2018-12-20T02:40:40.139Z,85.97
2018-12-20T02:43:07.646Z,80.90
2018-12-20T02:45:35.160Z,79.87
2018-12-20T02:48:02.772Z,76.43
2018-12-20T02:50:30.696Z,78.60
2018-12-20T02:52:58.427Z,80.90
2018-12-20T02:55:26.060Z,77.07
2018-12-20T02:57:53.845Z,87.20
2018-12-20T03:00:21.489Z,76.63
2018-12-20T03:02:49.104Z,79.60
2018-12-20T03:05:16.763Z,77.97
2018-12-20T03:07:44.589Z,78.20
2018-12-20T03:10:12.255Z,82.87
2018-12-20T03:12:39.770Z,72.80
2018-12-20T03:15:07.267Z,67.80
2018-12-20T03:17:34.954Z,67.97
2018-12-20T03:20:02.789Z,68.37
2018-12-20T03:22:30.426Z,66.23
2018-12-20T03:24:58.133Z,64.97
2018-12-20T03:27:25.811Z,69.60
2018-12-20T03:29:53.536Z,74.30
2018-12-20T03:32:21.358Z,66.70
2018-12-20T03:34:49.398Z,68.70
2018-12-20T03:37:17.014Z,68.70
2018-12-20T03:39:44.583Z,76.77
2018-12-20T03:42:12.247Z,69.07
2018-12-20T03:44:39.955Z,69.20
2018-12-20T03:47:07.656Z,73.03
2018-12-20T03:49:35.563Z,61.50
2018-12-20T03:52:03.138Z,66.63
2018-12-20T03:54:30.919Z,61.73
2018-12-20T03:56:58.646Z,59.10
2018-12-20T03:59:26.327Z,63.73
2018-12-20T04:01:53.953Z,57.03
2018-12-20T04:04:21.922Z,61.80
2018-12-20T04:06:49.636Z,67.23
2018-12-20T04:09:17.155Z,65.73
2018-12-20T04:11:44.645Z,64.53
2018-12-20T04:14:12.144Z,73.23
2018-12-20T04:16:40.105Z,75.73
2018-12-20T04:19:07.824Z,70.20
2018-12-20T04:21:35.559Z,65.70
2018-12-20T04:24:03.239Z,61.00
2018-12-20T04:26:30.878Z,59.57
2018-12-20T04:28:58.591Z,59.67
2018-12-20T04:31:26.274Z,58.20
2018-12-20T04:33:53.991Z,65.27
2018-12-20T04:36:21.582Z,59.80
2018-12-20T04:38:49.363Z,60.47
2018-12-20T04:41:17.015Z,61.57
2018-12-20T04:43:44.959Z,58.63
2018-12-20T04:46:12.739Z,61.63
2018-12-20T04:48:40.397Z,60.63
2018-12-20T04:51:08.083Z,62.40
2018-12-20T04:53:35.792Z,74.57
2018-12-20T04:56:03.390Z,70.97
2018-12-20T04:58:30.981Z,72.97
2018-12-20T05:00:58.551Z,77.03
2018-12-20T05:03:26.238Z,63.77
2018-12-20T05:05:53.802Z,63.77
2018-12-20T05:08:21.350Z,71.53
2018-12-20T05:10:48.874Z,77.67
2018-12-20T05:13:16.457Z,75.97
2018-12-20T05:15:44.208Z,75.90
2018-12-20T05:18:11.937Z,60.77
2018-12-20T05:20:39.868Z,70.17
2018-12-20T05:23:07.541Z,66.80
2018-12-20T05:25:35.224Z,64.80
2018-12-20T05:28:02.819Z,69.47
2018-12-20T05:30:30.299Z,68.37
2018-12-20T05:32:57.788Z,73.90
2018-12-20T05:35:25.985Z,68.43
2018-12-20T05:37:53.774Z,60.90
2018-12-20T05:40:21.758Z,67.80
2018-12-20T05:42:49.577Z,62.70
2018-12-20T05:45:17.219Z,63.53
2018-12-20T05:47:44.752Z,73.80
2018-12-20T05:50:12.269Z,70.57
2018-12-20T05:52:39.798Z,61.20
2018-12-20T05:55:07.414Z,64.20
2018-12-20T05:57:34.918Z,69.00
2018-12-20T06:00:02.638Z,68.03
2018-12-20T06:02:30.372Z,69.50
2018-12-20T06:04:58.036Z,78.17
2018-12-20T06:07:25.709Z,86.60
2018-12-20T06:09:53.275Z,86.73
2018-12-20T06:12:20.938Z,99.20
2018-12-20T06:14:48.523Z,115.90
2018-12-20T06:17:16.287Z,114.97
2018-12-20T06:19:44.051Z,115.40
2018-12-20T06:22:11.831Z,127.40
2018-12-20T06:24:39.414Z,120.73
2018-12-20T06:27:06.941Z,132.67
2018-12-20T06:29:34.435Z,115.03
2018-12-20T06:32:01.938Z,130.63
2018-12-20T06:34:29.417Z,117.97
2018-12-20T06:36:57.129Z,104.70
2018-12-20T06:39:24.667Z,109.87
2018-12-20T06:41:52.179Z,106.63
2018-12-20T06:44:19.796Z,98.20
2018-12-20T06:46:50.353Z,84.17
2018-12-20T06:49:17.845Z,85.57
2018-12-20T06:51:45.420Z,83.23
2018-12-20T06:54:12.906Z,93.83
2018-12-20T06:56:40.394Z,91.47
2018-12-20T06:59:07.912Z,93.47
2018-12-20T07:01:35.413Z,92.80
2018-12-20T07:04:21.700Z,115.87
2018-12-20T07:06:49.228Z,107.57
2018-12-20T07:09:16.726Z,113.97
2018-12-20T07:11:44.259Z,115.03
2018-12-20T07:14:11.767Z,118.37
2018-12-20T07:16:39.262Z,122.43
2018-12-20T07:19:06.750Z,131.93
2018-12-20T07:21:34.234Z,128.60
2018-12-20T07:24:01.809Z,128.17
2018-12-20T07:26:29.323Z,131.00
2018-12-20T07:28:56.818Z,132.67
2018-12-20T07:31:24.525Z,135.07
2018-12-20T07:33:52.030Z,134.27
2018-12-20T07:36:19.591Z,126.47
2018-12-20T07:38:47.113Z,125.93
2018-12-20T07:41:15.175Z,129.27
2018-12-20T07:43:42.659Z,118.13
2018-12-20T07:46:10.150Z,110.53
2018-12-20T07:48:37.674Z,103.83
2018-12-20T07:51:05.142Z,106.57
2018-12-20T07:53:32.730Z,103.73
2018-12-20T07:56:00.437Z,105.10
2018-12-20T07:58:27.961Z,109.33
2018-12-20T08:00:55.658Z,97.13
2018-12-20T08:03:23.153Z,100.03
2018-12-20T08:05:50.706Z,105.53
2018-12-20T08:08:18.195Z,104.30
2018-12-20T08:10:45.681Z,102.70
2018-12-20T08:13:13.161Z,99.93
2018-12-20T08:15:40.724Z,92.43
2018-12-20T08:18:08.202Z,96.93
2018-12-20T08:20:35.695Z,99.53
2018-12-20T08:23:03.174Z,90.07
2018-12-20T08:25:30.670Z,92.33
2018-12-20T08:27:58.180Z,92.90
2018-12-20T08:30:25.687Z,78.73
2018-12-20T08:32:53.187Z,80.03
2018-12-20T08:35:20.661Z,77.90
2018-12-20T08:37:48.142Z,74.77
2018-12-20T08:40:15.699Z,76.43
2018-12-20T08:42:43.263Z,74.90
2018-12-20T08:45:10.813Z,70.37
2018-12-20T08:47:38.401Z,74.60
2018-12-20T08:50:06.471Z,70.03
2018-12-20T08:52:33.974Z,72.20
2018-12-20T08:55:01.640Z,70.53
2018-12-20T08:57:29.234Z,69.13
2018-12-20T08:59:56.991Z,67.53
2018-12-20T09:02:24.567Z,70.13
2018-12-20T09:04:52.070Z,58.83
2018-12-20T09:07:19.687Z,60.70
2018-12-20T09:09:47.198Z,60.43
2018-12-20T09:12:14.806Z,64.13
2018-12-20T09:14:42.375Z,62.20
2018-12-20T09:17:09.931Z,60.53
2018-12-20T09:19:37.460Z,61.70
2018-12-20T09:22:05.012Z,53.13
2018-12-20T09:24:32.562Z,52.73
2018-12-20T09:27:00.181Z,54.73
2018-12-20T09:29:27.837Z,51.30
2018-12-20T09:31:55.339Z,48.53
2018-12-20T09:34:22.867Z,49.47
2018-12-20T09:36:50.519Z,52.87
2018-12-20T09:39:18.105Z,44.23
2018-12-20T09:41:45.638Z,45.67
2018-12-20T09:44:26.755Z,52.33
2018-12-20T09:46:56.284Z,53.13
2018-12-20T09:49:23.765Z,47.87
2018-12-20T09:51:51.346Z,42.40
2018-12-20T09:54:18.854Z,46.70
2018-12-20T09:56:46.383Z,41.33
2018-12-20T09:59:13.876Z,40.63
2018-12-20T10:01:41.434Z,40.50
2018-12-20T10:04:09.180Z,45.23
2018-12-20T10:06:36.811Z,42.53
2018-12-20T10:09:06.230Z,38.57
2018-12-20T10:11:33.790Z,41.10
2018-12-20T10:14:01.759Z,37.77
2018-12-20T10:16:29.256Z,39.40
2018-12-20T10:18:56.747Z,37.37
2018-12-20T10:21:24.248Z,33.00
2018-12-20T10:23:51.763Z,34.33
2018-12-20T10:26:19.316Z,32.17
2018-12-20T10:28:46.800Z,35.67
2018-12-20T10:31:14.303Z,33.57
2018-12-20T10:33:41.888Z,36.77
2018-12-20T10:36:09.469Z,25.27
2018-12-20T10:38:37.674Z,25.70
2018-12-20T10:41:05.214Z,32.13
2018-12-20T10:43:32.728Z,23.63
2018-12-20T10:46:00.315Z,25.57
2018-12-20T10:48:27.893Z,26.07
2018-12-20T10:50:55.388Z,24.27
2018-12-20T10:53:22.882Z,28.13
2018-12-20T10:55:50.408Z,25.30
2018-12-20T10:58:18.190Z,25.60
2018-12-20T11:00:51.241Z,25.90
2018-12-20T11:03:24.314Z,21.53
2018-12-20T11:05:57.352Z,19.47
2018-12-20T11:08:26.837Z,20.13
2018-12-20T11:11:05.275Z,22.47
2018-12-20T11:13:32.829Z,20.30
2018-12-20T11:16:00.315Z,20.27
2018-12-20T11:18:27.785Z,22.70
2018-12-20T11:20:55.281Z,21.13
2018-12-20T11:23:22.755Z,20.77
2018-12-20T11:25:50.224Z,20.30
2018-12-20T11:28:17.706Z,23.77
2018-12-20T11:30:45.271Z,17.63
2018-12-20T11:33:12.778Z,14.03
2018-12-20T11:35:40.260Z,14.10
2018-12-20T11:38:07.753Z,14.57
2018-12-20T11:40:35.230Z,13.90
2018-12-20T11:43:02.725Z,13.20
2018-12-20T11:45:30.212Z,12.43
2018-12-20T11:47:57.697Z,13.10
2018-12-20T11:50:25.186Z,16.13
2018-12-20T11:52:52.670Z,15.33
2018-12-20T11:55:20.171Z,14.20
2018-12-20T11:57:47.654Z,14.77
2018-12-20T12:00:15.138Z,15.00
2018-12-20T12:02:42.620Z,12.47
2018-12-20T12:05:10.117Z,13.20
2018-12-20T12:07:37.604Z,12.10
2018-12-20T12:10:06.059Z,12.30
2018-12-20T12:12:33.563Z,11.37
2018-12-20T12:15:01.033Z,13.53
2018-12-20T12:17:28.493Z,11.23
2018-12-20T12:19:55.997Z,10.73
2018-12-20T12:22:24.862Z,11.13
2018-12-20T12:24:52.413Z,11.63
2018-12-20T12:27:19.899Z,10.73
2018-12-20T12:29:47.368Z,11.80
2018-12-20T12:32:14.871Z,10.30
2018-12-20T12:34:42.363Z,10.00
2018-12-20T12:37:09.843Z,12.60
2018-12-20T12:39:37.318Z,10.77
2018-12-20T12:42:04.805Z,8.83
2018-12-20T12:44:32.280Z,8.60
2018-12-20T12:46:59.758Z,7.93
2018-12-20T12:49:27.263Z,10.80
2018-12-20T12:51:54.748Z,10.83
2018-12-20T12:54:22.235Z,10.67
2018-12-20T12:56:49.702Z,10.83
2018-12-20T12:59:17.179Z,10.77
2018-12-20T13:01:44.653Z,12.17
2018-12-20T13:04:12.137Z,16.37
2018-12-20T13:06:39.679Z,9.73
2018-12-20T13:09:07.144Z,8.63
2018-12-20T13:11:34.632Z,8.80
2018-12-20T13:14:02.110Z,9.90
2018-12-20T13:16:29.576Z,6.83
2018-12-20T13:18:57.055Z,7.53
2018-12-20T13:21:24.515Z,8.27
2018-12-20T13:23:51.979Z,7.43
2018-12-20T13:26:19.447Z,8.20
2018-12-20T13:28:46.910Z,18.67
2018-12-20T13:31:14.396Z,13.57
2018-12-20T13:33:41.859Z,7.40
2018-12-20T13:36:09.381Z,12.17
2018-12-20T13:38:37.306Z,11.30
2018-12-20T13:41:04.833Z,9.33
2018-12-20T13:43:32.399Z,7.27
2018-12-20T13:45:59.863Z,7.43
2018-12-20T13:48:27.336Z,12.27
2018-12-20T13:50:54.823Z,10.50
2018-12-20T13:53:22.290Z,11.33
2018-12-20T13:55:49.760Z,8.20
2018-12-20T13:58:17.213Z,10.17
2018-12-20T14:00:44.684Z,9.47
2018-12-20T14:03:12.231Z,7.47
2018-12-20T14:05:39.710Z,11.27
2018-12-20T14:08:07.161Z,12.63
2018-12-20T14:10:34.670Z,23.43
2018-12-20T14:13:02.131Z,23.13
2018-12-20T14:15:29.594Z,11.80
2018-12-20T14:17:57.064Z,10.97
2018-12-20T14:20:24.527Z,8.83
2018-12-20T14:22:52.013Z,9.70
2018-12-20T14:25:19.591Z,10.33
2018-12-20T14:27:47.974Z,7.37
2018-12-20T14:30:15.439Z,7.70
2018-12-20T14:32:43.292Z,9.43
2018-12-20T14:35:10.834Z,8.87
2018-12-20T14:37:38.373Z,9.23
2018-12-20T14:40:07.841Z,8.07
2018-12-20T14:42:35.406Z,8.73
2018-12-20T14:45:03.005Z,7.87
2018-12-20T14:47:30.514Z,6.43
2018-12-20T14:49:58.022Z,9.83
2018-12-20T14:52:25.605Z,7.73
2018-12-20T14:54:53.189Z,7.63
2018-12-20T14:57:20.916Z,8.27
2018-12-20T14:59:48.434Z,7.27
2018-12-20T15:02:15.902Z,7.77
2018-12-20T15:04:43.387Z,8.43
2018-12-20T15:07:11.286Z,10.73
2018-12-20T15:09:39.763Z,7.40
2018-12-20T15:12:07.255Z,8.47
2018-12-20T15:14:34.734Z,11.77
2018-12-20T15:17:02.460Z,11.87
2018-12-20T15:19:29.933Z,10.07
2018-12-20T15:21:57.416Z,6.23
2018-12-20T15:24:24.905Z,6.03
2018-12-20T15:26:52.422Z,7.00
2018-12-20T15:29:19.894Z,6.53
2018-12-20T15:31:53.412Z,7.03
2018-12-20T15:34:17.007Z,8.73
2018-12-20T15:36:44.503Z,5.50
2018-12-20T15:39:11.970Z,6.77
2018-12-20T15:41:39.440Z,8.17
2018-12-20T15:44:06.915Z,5.73
2018-12-20T15:46:34.429Z,7.33
2018-12-20T15:49:04.312Z,6.33
2018-12-20T15:51:33.229Z,8.90
2018-12-20T15:54:01.120Z,6.00
2018-12-20T15:56:28.613Z,8.70
2018-12-20T15:58:56.142Z,21.93
2018-12-20T16:01:23.603Z,9.40
2018-12-20T16:03:51.102Z,10.50
2018-12-20T16:06:18.589Z,8.30
2018-12-20T16:08:46.358Z,11.77
2018-12-20T16:11:13.842Z,12.90
2018-12-20T16:13:41.354Z,12.10
2018-12-20T16:16:08.823Z,11.37
2018-12-20T16:18:36.330Z,13.40
2018-12-20T16:21:03.843Z,11.20
2018-12-20T16:23:31.453Z,12.70
2018-12-20T16:25:59.733Z,12.60
2018-12-20T16:28:27.215Z,16.67
2018-12-20T16:30:54.675Z,17.00
2018-12-20T16:33:22.202Z,12.50
2018-12-20T16:35:49.866Z,11.80
2018-12-20T16:38:17.383Z,11.40
2018-12-20T16:40:44.918Z,12.83
2018-12-20T16:43:12.366Z,9.83
2018-12-20T16:45:41.064Z,11.17
2018-12-20T16:48:08.677Z,8.53
2018-12-20T16:50:36.150Z,8.77
2018-12-20T16:53:03.625Z,10.87
2018-12-20T16:55:31.963Z,13.70
2018-12-20T16:57:59.469Z,9.70
2018-12-20T17:00:26.965Z,8.70
2018-12-20T17:02:54.438Z,7.37
2018-12-20T17:05:22.054Z,8.60
2018-12-20T17:07:49.534Z,7.87
2018-12-20T17:10:17.018Z,12.40
2018-12-20T17:12:45.256Z,11.70
2018-12-20T17:15:12.844Z,13.17
2018-12-20T17:17:40.330Z,22.17
2018-12-20T17:20:07.843Z,27.90
2018-12-20T17:22:35.438Z,13.70
2018-12-20T17:25:02.946Z,7.33
2018-12-20T17:27:30.491Z,8.30
2018-12-20T17:29:57.967Z,9.20
2018-12-20T17:32:25.452Z,8.83
2018-12-20T17:34:52.951Z,11.03
2018-12-20T17:37:20.419Z,9.03
2018-12-20T17:39:47.895Z,14.00
2018-12-20T17:42:15.370Z,8.73
2018-12-20T17:44:42.839Z,8.20
2018-12-20T17:47:10.347Z,8.87
2018-12-20T17:49:38.019Z,8.13
2018-12-20T17:52:05.549Z,11.40
2018-12-20T17:54:33.002Z,12.03
2018-12-20T17:57:00.456Z,6.63
2018-12-20T17:59:27.921Z,7.70
2018-12-20T18:01:55.407Z,6.47
2018-12-20T18:04:22.904Z,7.80
2018-12-20T18:06:50.494Z,9.17
2018-12-20T18:09:18.211Z,6.87
2018-12-20T18:11:45.760Z,8.07
2018-12-20T18:14:13.218Z,9.93
2018-12-20T18:16:40.745Z,7.77
2018-12-20T18:19:08.220Z,6.93
2018-12-20T18:21:35.709Z,9.57
2018-12-20T18:24:03.174Z,10.53
2018-12-20T18:26:30.663Z,7.03
2018-12-20T18:28:58.409Z,6.67
2018-12-20T18:31:25.902Z,8.73
2018-12-20T18:33:53.391Z,8.33
2018-12-20T18:36:20.860Z,6.27
2018-12-20T18:38:48.336Z,7.83
2018-12-20T18:41:15.807Z,7.33
2018-12-20T18:43:43.270Z,10.33
2018-12-20T18:46:12.040Z,7.70
2018-12-20T18:48:39.656Z,8.43
2018-12-20T18:51:07.122Z,7.53
2018-12-20T18:53:34.769Z,6.60
2018-12-20T18:56:02.260Z,6.10
2018-12-20T18:58:29.721Z,7.60
2018-12-20T19:00:57.182Z,7.03
2018-12-20T19:03:24.872Z,6.10
2018-12-20T19:05:52.364Z,6.93
2018-12-20T19:08:31.299Z,7.20
2018-12-20T19:10:58.757Z,7.57
2018-12-20T19:13:26.241Z,11.57
2018-12-20T19:15:53.695Z,8.97
2018-12-20T19:18:21.172Z,9.50
2018-12-20T19:20:48.638Z,11.70
2018-12-20T19:23:16.153Z,10.07
2018-12-20T19:25:43.711Z,10.30
2018-12-20T19:28:11.278Z,8.67
2018-12-20T19:30:38.774Z,7.27
2018-12-20T19:33:06.280Z,6.67
2018-12-20T19:35:33.779Z,6.07
2018-12-20T19:38:01.270Z,11.50
2018-12-20T19:40:28.741Z,8.40
2018-12-20T19:42:56.202Z,6.73
2018-12-20T19:45:23.677Z,6.53
2018-12-20T19:47:51.142Z,8.90
2018-12-20T19:50:18.624Z,8.33
2018-12-20T19:52:46.111Z,10.20
2018-12-20T19:55:13.578Z,7.37
2018-12-20T19:57:41.031Z,9.57
2018-12-20T20:00:11.345Z,7.07
2018-12-20T20:02:38.833Z,7.37
2018-12-20T20:05:06.290Z,8.30
2018-12-20T20:07:33.771Z,8.93
2018-12-20T20:10:01.238Z,10.80
2018-12-20T20:12:28.708Z,8.73
2018-12-20T20:14:56.169Z,9.27
2018-12-20T20:17:23.716Z,8.60
2018-12-20T20:19:59.491Z,7.80
2018-12-20T20:22:20.682Z,7.63
2018-12-20T20:24:48.147Z,8.63
2018-12-20T20:27:15.610Z,7.63
2018-12-20T20:29:43.086Z,8.70
2018-12-20T20:32:10.565Z,8.13
2018-12-20T20:34:38.027Z,7.53
2018-12-20T20:37:05.495Z,13.17
2018-12-20T20:39:32.969Z,8.17
2018-12-20T20:42:00.563Z,10.47
2018-12-20T20:44:28.054Z,10.13
2018-12-20T20:46:55.525Z,10.13
2018-12-20T20:49:22.986Z,9.97
2018-12-20T20:51:50.441Z,8.43
2018-12-20T20:54:17.913Z,8.30
2018-12-20T20:56:45.397Z,11.37
2018-12-20T20:59:12.859Z,11.13
2018-12-20T21:01:40.328Z,8.63
2018-12-20T21:04:07.790Z,9.37
2018-12-20T21:06:35.262Z,9.43
2018-12-20T21:09:02.726Z,8.60
2018-12-20T21:11:30.185Z,10.23
2018-12-20T21:13:57.658Z,8.07
2018-12-20T21:16:25.126Z,8.07
2018-12-20T21:18:52.618Z,8.23
2018-12-20T21:21:20.087Z,7.93
2018-12-20T21:23:47.545Z,9.37
2018-12-20T21:26:15.020Z,10.20
2018-12-20T21:28:42.482Z,8.67
2018-12-20T21:31:09.971Z,8.53
2018-12-20T21:33:37.439Z,9.13
2018-12-20T21:36:04.899Z,10.10
2018-12-20T21:38:32.363Z,8.73
2018-12-20T21:40:59.834Z,9.50
2018-12-20T21:43:27.313Z,9.50
2018-12-20T21:45:54.775Z,10.93
2018-12-20T21:48:22.241Z,9.07
2018-12-20T21:50:49.716Z,9.47
2018-12-20T21:53:17.198Z,9.23
2018-12-20T21:55:44.664Z,8.10
2018-12-20T21:58:12.149Z,10.37
2018-12-20T22:00:39.605Z,8.47
2018-12-20T22:03:07.058Z,7.20
2018-12-20T22:05:34.530Z,9.03
2018-12-20T22:08:01.999Z,10.33
2018-12-20T22:10:29.486Z,7.60
2018-12-20T22:12:56.943Z,7.03
2018-12-20T22:15:24.411Z,9.27
2018-12-20T22:17:51.903Z,11.83
2018-12-20T22:20:19.397Z,7.53
2018-12-20T22:22:46.904Z,7.20
2018-12-20T22:25:14.518Z,7.93
2018-12-20T22:27:42.020Z,7.90
2018-12-20T22:30:09.526Z,7.77
2018-12-20T22:32:36.995Z,7.93
2018-12-20T22:35:05.025Z,7.30
2018-12-20T22:37:32.951Z,11.97
2018-12-20T22:40:00.486Z,8.73
2018-12-20T22:42:27.971Z,6.87
2018-12-20T22:44:55.446Z,6.63
2018-12-20T22:47:22.902Z,9.23
2018-12-20T22:49:50.529Z,6.37
2018-12-20T22:52:18.073Z,8.30
2018-12-20T22:54:45.541Z,7.53
2018-12-20T22:57:13.066Z,10.60
2018-12-20T22:59:40.539Z,9.63
2018-12-20T23:02:07.998Z,8.83
2018-12-20T23:04:35.543Z,7.30
2018-12-20T23:07:03.020Z,8.53
2018-12-20T23:09:30.707Z,8.03
2018-12-20T23:11:58.193Z,7.00
2018-12-20T23:14:25.734Z,7.20
2018-12-20T23:16:53.826Z,6.20
2018-12-20T23:19:21.820Z,8.47
2018-12-20T23:21:49.299Z,7.03
2018-12-20T23:24:16.779Z,6.77
2018-12-20T23:26:44.280Z,9.50
2018-12-20T23:29:11.754Z,7.67
2018-12-20T23:31:39.231Z,6.33
2018-12-20T23:34:06.744Z,8.37
2018-12-20T23:36:34.198Z,6.87
2018-12-20T23:39:01.690Z,7.87
2018-12-20T23:41:29.157Z,7.90
2018-12-20T23:43:56.627Z,7.87
2018-12-20T23:46:24.154Z,8.30
2018-12-20T23:48:51.650Z,7.10
2018-12-20T23:51:19.169Z,9.43
2018-12-20T23:53:46.666Z,9.63
2018-12-20T23:56:14.125Z,10.17
2018-12-20T23:58:41.651Z,10.80
